KEED

Needles Airport

Needles, California, USA
KEED 221446Z 2215/2312 01020G30KT P6SM SKC FM221700 01025G35KT P6SM SKC FM230100 02016G24KT P6SM SKC FM230300 34012KT P6SM FEW250
Issued Valid From Valid To
Jan-22 @ 14:46 UTC
(2 hours ago)
Jan-22 @ 15:00 UTC
(2 hours ago)
Jan-23 @ 12:00 UTC
(in 19 hours)
Jan-22 @ 15:00 to Jan-22 @ 17:00
KEED 221446Z 2215/2312 01020G30KT P6SM SKC
Wind Visibility Clouds
10° at 20 knots
 Gusting to 30 knots
Greater than 6 miles
  • Clear skies
From Jan-22 @ 17:00 to Jan-23 @ 01:00
FM221700 01025G35KT P6SM SKC
Wind Visibility Clouds
10° at 25 knots
 Gusting to 35 knots
Greater than 6 miles
  • Clear skies
From Jan-23 @ 01:00 to Jan-23 @ 03:00
FM230100 02016G24KT P6SM SKC
Wind Visibility Clouds
20° at 16 knots
 Gusting to 24 knots
Greater than 6 miles
  • Clear skies
From Jan-23 @ 03:00 to Jan-23 @ 12:00
FM230300 34012KT P6SM FEW250
Wind Visibility Clouds
340° at 12 knots Greater than 6 miles
  • Few at 25,000' AGL
KEED 221446Z 2215/2312 01020G30KT P6SM SKC FM221700 01025G35KT P6SM SKC FM230100 02016G24KT P6SM SKC FM230300 34012KT P6SM FEW250
Issued Jan-22 @ 14:46 UTC
(2 hours ago)
Valid From Jan-22 @ 15:00 UTC
(2 hours ago)
Valid To Jan-23 @ 12:00 UTC
(in 19 hours)
Jan-22 @ 15:00 - Jan-22 @ 17:00
Wind Visibility
10° at 20 knots
 Gusting to 30 knots
Greater than 6 miles
Clouds
  • Clear skies
From Jan-22 @ 17:00 - Jan-23 @ 01:00
Wind Visibility
10° at 25 knots
 Gusting to 35 knots
Greater than 6 miles
Clouds
  • Clear skies
From Jan-23 @ 01:00 - Jan-23 @ 03:00
Wind Visibility
20° at 16 knots
 Gusting to 24 knots
Greater than 6 miles
Clouds
  • Clear skies
From Jan-23 @ 03:00 - Jan-23 @ 12:00
Wind Visibility
340° at 12 knots Greater than 6 miles
Clouds
  • Few at 25,000' AGL